Terminal Aerodrome Forecast
Issued by NWS

Current Version | Previous Version | Text Only | Print | Product List | Glossary On
Versions: 1 2 3 4 5 6 7 8 9 10 11 12 13 14 15 16 17 18 19
383
FTUS42 KMLB 210520
TAFFPR
TAF
KFPR 210520Z 2106/2206 VRB05KT P6SM FEW020 BKN250
     FM211700 14008KT P6SM VCTS SCT035CB BKN250
     FM212200 15008KT P6SM VCSH SCT040 BKN120=

USA.gov is the U.S. government's official web portal to all federal, state and local government web resources and services.